sensor_id;sensor_type;location;lat;lon;timestamp;P1;durP1;ratioP1;P2;durP2;ratioP2
70866;SDS011;58487;53.474;49.470;2022-09-19T00:01:24;18.98;;;11.15;;
70866;SDS011;58487;53.474;49.470;2022-09-19T00:03:56;19.15;;;11.93;;
70866;SDS011;58487;53.474;49.470;2022-09-19T00:06:28;15.95;;;10.27;;
70866;SDS011;58487;53.474;49.470;2022-09-19T00:08:56;18.20;;;11.13;;
70866;SDS011;58487;53.474;49.470;2022-09-19T00:11:23;19.77;;;12.05;;
70866;SDS011;58487;53.474;49.470;2022-09-19T00:13:51;18.65;;;11.15;;
70866;SDS011;58487;53.474;49.470;2022-09-19T00:16:23;19.63;;;11.18;;
70866;SDS011;58487;53.474;49.470;2022-09-19T00:18:52;19.90;;;11.23;;
70866;SDS011;58487;53.474;49.470;2022-09-19T00:21:22;19.53;;;10.80;;
70866;SDS011;58487;53.474;49.470;2022-09-19T00:23:50;16.38;;;10.55;;
70866;SDS011;58487;53.474;49.470;2022-09-19T00:26:39;16.25;;;9.68;;
70866;SDS011;58487;53.474;49.470;2022-09-19T00:29:07;16.38;;;9.88;;
70866;SDS011;58487;53.474;49.470;2022-09-19T00:31:34;19.38;;;10.45;;
70866;SDS011;58487;53.474;49.470;2022-09-19T00:34:01;17.93;;;10.10;;
70866;SDS011;58487;53.474;49.470;2022-09-19T00:36:35;16.60;;;9.85;;
70866;SDS011;58487;53.474;49.470;2022-09-19T00:39:02;18.52;;;9.75;;
70866;SDS011;58487;53.474;49.470;2022-09-19T00:41:29;16.30;;;9.35;;
70866;SDS011;58487;53.474;49.470;2022-09-19T00:43:57;15.85;;;9.50;;
70866;SDS011;58487;53.474;49.470;2022-09-19T00:46:29;15.33;;;9.30;;
70866;SDS011;58487;53.474;49.470;2022-09-19T00:48:57;14.68;;;9.63;;
70866;SDS011;58487;53.474;49.470;2022-09-19T00:54:16;14.70;;;9.40;;
70866;SDS011;58487;53.474;49.470;2022-09-19T00:56:46;15.48;;;9.80;;
70866;SDS011;58487;53.474;49.470;2022-09-19T00:59:15;15.37;;;9.17;;
70866;SDS011;58487;53.474;49.470;2022-09-19T01:01:43;17.38;;;10.02;;
70866;SDS011;58487;53.474;49.470;2022-09-19T01:04:14;17.92;;;9.20;;
70866;SDS011;58487;53.474;49.470;2022-09-19T01:14:58;13.20;;;8.32;;
70866;SDS011;58487;53.474;49.470;2022-09-19T01:17:44;15.45;;;9.02;;
70866;SDS011;58487;53.474;49.470;2022-09-19T01:26:04;17.83;;;8.73;;
70866;SDS011;58487;53.474;49.470;2022-09-19T01:29:00;15.63;;;8.52;;
70866;SDS011;58487;53.474;49.470;2022-09-19T01:31:34;15.40;;;8.40;;
70866;SDS011;58487;53.474;49.470;2022-09-19T01:34:12;16.15;;;8.77;;
70866;SDS011;58487;53.474;49.470;2022-09-19T01:36:44;16.77;;;8.38;;
70866;SDS011;58487;53.474;49.470;2022-09-19T01:39:36;15.07;;;7.70;;
70866;SDS011;58487;53.474;49.470;2022-09-19T01:42:04;14.30;;;7.65;;
70866;SDS011;58487;53.474;49.470;2022-09-19T01:44:31;16.30;;;8.48;;
70866;SDS011;58487;53.474;49.470;2022-09-19T02:00:31;13.48;;;7.25;;
70866;SDS011;58487;53.474;49.470;2022-09-19T02:03:16;14.70;;;7.97;;
70866;SDS011;58487;53.474;49.470;2022-09-19T02:11:20;13.43;;;6.78;;
70866;SDS011;58487;53.474;49.470;2022-09-19T02:13:50;11.73;;;6.80;;
70866;SDS011;58487;53.474;49.470;2022-09-19T02:16:24;14.20;;;6.75;;
70866;SDS011;58487;53.474;49.470;2022-09-19T02:18:59;15.40;;;7.27;;
70866;SDS011;58487;53.474;49.470;2022-09-19T02:22:12;10.23;;;6.15;;
70866;SDS011;58487;53.474;49.470;2022-09-19T02:24:26;12.38;;;7.13;;
70866;SDS011;58487;53.474;49.470;2022-09-19T02:27:07;11.32;;;6.13;;
70866;SDS011;58487;53.474;49.470;2022-09-19T02:29:51;11.43;;;5.45;;
70866;SDS011;58487;53.474;49.470;2022-09-19T02:32:19;13.80;;;5.80;;
70866;SDS011;58487;53.474;49.470;2022-09-19T02:34:47;13.65;;;5.35;;
70866;SDS011;58487;53.474;49.470;2022-09-19T02:40:29;10.45;;;5.75;;
70866;SDS011;58487;53.474;49.470;2022-09-19T02:43:27;9.00;;;4.70;;
70866;SDS011;58487;53.474;49.470;2022-09-19T02:47:04;13.17;;;5.37;;
70866;SDS011;58487;53.474;49.470;2022-09-19T02:51:40;12.73;;;5.32;;
70866;SDS011;58487;53.474;49.470;2022-09-19T02:54:11;9.45;;;4.90;;
70866;SDS011;58487;53.474;49.470;2022-09-19T02:56:42;10.20;;;4.72;;
70866;SDS011;58487;53.474;49.470;2022-09-19T02:59:28;10.37;;;5.03;;
70866;SDS011;58487;53.474;49.470;2022-09-19T03:02:06;9.25;;;5.07;;
70866;SDS011;58487;53.474;49.470;2022-09-19T03:04:38;12.07;;;5.13;;
70866;SDS011;58487;53.474;49.470;2022-09-19T03:07:08;10.85;;;5.10;;
70866;SDS011;58487;53.474;49.470;2022-09-19T03:09:39;9.13;;;5.22;;
70866;SDS011;58487;53.474;49.470;2022-09-19T03:15:28;7.90;;;4.88;;
70866;SDS011;58487;53.474;49.470;2022-09-19T03:18:05;15.40;;;5.30;;
70866;SDS011;58487;53.474;49.470;2022-09-19T03:20:38;10.88;;;5.10;;
70866;SDS011;58487;53.474;49.470;2022-09-19T03:23:09;11.55;;;5.38;;
70866;SDS011;58487;53.474;49.470;2022-09-19T03:25:38;8.43;;;5.00;;
70866;SDS011;58487;53.474;49.470;2022-09-19T03:28:04;11.32;;;5.25;;
70866;SDS011;58487;53.474;49.470;2022-09-19T03:30:31;10.50;;;4.82;;
70866;SDS011;58487;53.474;49.470;2022-09-19T03:32:57;9.13;;;5.20;;
70866;SDS011;58487;53.474;49.470;2022-09-19T03:35:25;11.35;;;4.65;;
70866;SDS011;58487;53.474;49.470;2022-09-19T03:37:51;14.40;;;5.10;;
70866;SDS011;58487;53.474;49.470;2022-09-19T03:40:17;9.55;;;4.90;;
70866;SDS011;58487;53.474;49.470;2022-09-19T03:42:43;8.05;;;4.57;;
70866;SDS011;58487;53.474;49.470;2022-09-19T03:45:11;12.50;;;5.32;;
70866;SDS011;58487;53.474;49.470;2022-09-19T03:47:37;10.48;;;5.13;;
70866;SDS011;58487;53.474;49.470;2022-09-19T03:50:03;11.90;;;5.00;;
70866;SDS011;58487;53.474;49.470;2022-09-19T03:52:31;9.38;;;4.75;;
70866;SDS011;58487;53.474;49.470;2022-09-19T03:54:59;12.23;;;5.15;;
70866;SDS011;58487;53.474;49.470;2022-09-19T03:57:25;11.38;;;4.95;;
70866;SDS011;58487;53.474;49.470;2022-09-19T03:59:51;13.48;;;5.35;;
70866;SDS011;58487;53.474;49.470;2022-09-19T04:02:17;10.33;;;4.63;;
70866;SDS011;58487;53.474;49.470;2022-09-19T04:04:43;12.98;;;4.95;;
70866;SDS011;58487;53.474;49.470;2022-09-19T04:07:09;9.60;;;4.68;;
70866;SDS011;58487;53.474;49.470;2022-09-19T04:09:35;10.05;;;4.40;;
70866;SDS011;58487;53.474;49.470;2022-09-19T04:12:02;10.45;;;4.47;;
70866;SDS011;58487;53.474;49.470;2022-09-19T04:14:28;8.77;;;4.40;;
70866;SDS011;58487;53.474;49.470;2022-09-19T04:16:55;9.60;;;4.80;;
70866;SDS011;58487;53.474;49.470;2022-09-19T04:19:21;9.75;;;4.70;;
70866;SDS011;58487;53.474;49.470;2022-09-19T04:21:52;10.32;;;4.38;;
70866;SDS011;58487;53.474;49.470;2022-09-19T04:24:19;15.15;;;4.70;;
70866;SDS011;58487;53.474;49.470;2022-09-19T04:26:46;9.00;;;4.43;;
70866;SDS011;58487;53.474;49.470;2022-09-19T04:29:12;9.65;;;4.80;;
70866;SDS011;58487;53.474;49.470;2022-09-19T04:31:39;8.65;;;4.53;;
70866;SDS011;58487;53.474;49.470;2022-09-19T04:34:05;11.65;;;4.82;;
70866;SDS011;58487;53.474;49.470;2022-09-19T04:36:33;10.93;;;4.63;;
70866;SDS011;58487;53.474;49.470;2022-09-19T04:39:00;9.10;;;4.50;;
70866;SDS011;58487;53.474;49.470;2022-09-19T04:41:30;11.05;;;4.85;;
70866;SDS011;58487;53.474;49.470;2022-09-19T04:43:59;10.48;;;5.40;;
70866;SDS011;58487;53.474;49.470;2022-09-19T04:46:29;11.95;;;5.00;;
70866;SDS011;58487;53.474;49.470;2022-09-19T04:48:57;8.48;;;4.57;;
70866;SDS011;58487;53.474;49.470;2022-09-19T04:51:24;12.67;;;4.50;;
70866;SDS011;58487;53.474;49.470;2022-09-19T04:53:51;10.63;;;4.57;;
70866;SDS011;58487;53.474;49.470;2022-09-19T04:56:17;14.18;;;9.82;;
70866;SDS011;58487;53.474;49.470;2022-09-19T04:58:44;14.15;;;4.75;;
70866;SDS011;58487;53.474;49.470;2022-09-19T05:01:11;11.68;;;4.93;;
70866;SDS011;58487;53.474;49.470;2022-09-19T05:03:39;9.93;;;4.97;;
70866;SDS011;58487;53.474;49.470;2022-09-19T05:06:08;12.30;;;5.10;;
70866;SDS011;58487;53.474;49.470;2022-09-19T05:08:35;11.05;;;4.95;;
70866;SDS011;58487;53.474;49.470;2022-09-19T05:11:04;14.38;;;4.82;;
70866;SDS011;58487;53.474;49.470;2022-09-19T05:13:32;12.95;;;4.82;;
70866;SDS011;58487;53.474;49.470;2022-09-19T05:16:01;15.03;;;5.17;;
70866;SDS011;58487;53.474;49.470;2022-09-19T05:18:27;13.43;;;4.80;;
70866;SDS011;58487;53.474;49.470;2022-09-19T05:20:54;10.93;;;4.85;;
70866;SDS011;58487;53.474;49.470;2022-09-19T05:23:21;9.93;;;4.97;;
70866;SDS011;58487;53.474;49.470;2022-09-19T05:25:48;10.48;;;4.90;;
70866;SDS011;58487;53.474;49.470;2022-09-19T05:28:19;10.10;;;5.00;;
70866;SDS011;58487;53.474;49.470;2022-09-19T05:30:52;13.93;;;4.63;;
70866;SDS011;58487;53.474;49.470;2022-09-19T05:33:21;9.43;;;4.68;;
70866;SDS011;58487;53.474;49.470;2022-09-19T05:35:55;11.93;;;5.18;;
70866;SDS011;58487;53.474;49.470;2022-09-19T05:38:24;9.93;;;6.60;;
70866;SDS011;58487;53.474;49.470;2022-09-19T05:40:53;10.90;;;5.20;;
70866;SDS011;58487;53.474;49.470;2022-09-19T05:43:20;15.18;;;5.20;;
70866;SDS011;58487;53.474;49.470;2022-09-19T05:45:48;13.60;;;5.80;;
70866;SDS011;58487;53.474;49.470;2022-09-19T05:48:18;14.80;;;5.10;;
70866;SDS011;58487;53.474;49.470;2022-09-19T05:50:45;15.73;;;4.90;;
70866;SDS011;58487;53.474;49.470;2022-09-19T05:53:12;11.20;;;4.87;;
70866;SDS011;58487;53.474;49.470;2022-09-19T05:55:57;13.27;;;5.05;;
70866;SDS011;58487;53.474;49.470;2022-09-19T05:58:24;10.18;;;5.50;;
70866;SDS011;58487;53.474;49.470;2022-09-19T06:00:51;14.07;;;6.60;;
70866;SDS011;58487;53.474;49.470;2022-09-19T06:03:18;14.65;;;6.72;;
70866;SDS011;58487;53.474;49.470;2022-09-19T06:05:46;13.13;;;6.47;;
70866;SDS011;58487;53.474;49.470;2022-09-19T06:08:17;11.77;;;6.25;;
70866;SDS011;58487;53.474;49.470;2022-09-19T06:10:45;9.98;;;5.13;;
70866;SDS011;58487;53.474;49.470;2022-09-19T06:13:12;8.50;;;5.15;;
70866;SDS011;58487;53.474;49.470;2022-09-19T06:15:40;8.68;;;5.40;;
70866;SDS011;58487;53.474;49.470;2022-09-19T06:18:06;11.07;;;5.53;;
70866;SDS011;58487;53.474;49.470;2022-09-19T06:20:35;8.98;;;4.90;;
70866;SDS011;58487;53.474;49.470;2022-09-19T06:23:02;11.70;;;5.30;;
70866;SDS011;58487;53.474;49.470;2022-09-19T06:25:30;9.43;;;5.00;;
70866;SDS011;58487;53.474;49.470;2022-09-19T06:28:00;8.85;;;4.95;;
70866;SDS011;58487;53.474;49.470;2022-09-19T06:30:30;9.30;;;4.70;;
70866;SDS011;58487;53.474;49.470;2022-09-19T06:32:57;9.60;;;5.15;;
70866;SDS011;58487;53.474;49.470;2022-09-19T06:35:23;11.15;;;5.32;;
70866;SDS011;58487;53.474;49.470;2022-09-19T06:37:59;11.63;;;5.15;;
70866;SDS011;58487;53.474;49.470;2022-09-19T06:40:26;11.50;;;5.07;;
70866;SDS011;58487;53.474;49.470;2022-09-19T06:42:59;13.07;;;4.93;;
70866;SDS011;58487;53.474;49.470;2022-09-19T06:45:31;8.77;;;5.00;;
70866;SDS011;58487;53.474;49.470;2022-09-19T06:48:05;12.52;;;5.22;;
70866;SDS011;58487;53.474;49.470;2022-09-19T06:50:33;10.30;;;5.25;;
70866;SDS011;58487;53.474;49.470;2022-09-19T06:52:59;13.57;;;5.72;;
70866;SDS011;58487;53.474;49.470;2022-09-19T06:55:25;10.60;;;5.23;;
70866;SDS011;58487;53.474;49.470;2022-09-19T06:57:56;13.45;;;4.88;;
70866;SDS011;58487;53.474;49.470;2022-09-19T07:00:30;10.32;;;5.03;;
70866;SDS011;58487;53.474;49.470;2022-09-19T07:03:08;9.23;;;5.10;;
70866;SDS011;58487;53.474;49.470;2022-09-19T07:05:40;11.20;;;4.82;;
70866;SDS011;58487;53.474;49.470;2022-09-19T07:08:08;13.43;;;5.40;;
70866;SDS011;58487;53.474;49.470;2022-09-19T07:10:35;10.63;;;5.60;;
70866;SDS011;58487;53.474;49.470;2022-09-19T07:13:02;11.02;;;5.60;;
70866;SDS011;58487;53.474;49.470;2022-09-19T07:15:36;10.07;;;5.57;;
70866;SDS011;58487;53.474;49.470;2022-09-19T07:18:03;12.98;;;5.55;;
70866;SDS011;58487;53.474;49.470;2022-09-19T07:20:34;10.37;;;6.10;;
70866;SDS011;58487;53.474;49.470;2022-09-19T07:23:14;9.18;;;5.40;;
70866;SDS011;58487;53.474;49.470;2022-09-19T07:25:42;9.13;;;5.07;;
70866;SDS011;58487;53.474;49.470;2022-09-19T07:28:10;10.15;;;5.35;;
70866;SDS011;58487;53.474;49.470;2022-09-19T07:30:37;10.32;;;5.45;;
70866;SDS011;58487;53.474;49.470;2022-09-19T07:33:05;10.43;;;5.53;;
70866;SDS011;58487;53.474;49.470;2022-09-19T07:35:33;9.73;;;5.05;;
70866;SDS011;58487;53.474;49.470;2022-09-19T07:38:02;11.43;;;5.10;;
70866;SDS011;58487;53.474;49.470;2022-09-19T07:40:30;8.10;;;4.68;;
70866;SDS011;58487;53.474;49.470;2022-09-19T07:42:59;7.07;;;4.32;;
70866;SDS011;58487;53.474;49.470;2022-09-19T07:45:28;8.67;;;4.53;;
70866;SDS011;58487;53.474;49.470;2022-09-19T07:47:57;9.15;;;4.60;;
70866;SDS011;58487;53.474;49.470;2022-09-19T07:50:23;11.65;;;4.60;;
70866;SDS011;58487;53.474;49.470;2022-09-19T07:52:59;11.70;;;4.88;;
70866;SDS011;58487;53.474;49.470;2022-09-19T07:55:26;10.43;;;4.90;;
70866;SDS011;58487;53.474;49.470;2022-09-19T07:57:53;12.13;;;5.10;;
70866;SDS011;58487;53.474;49.470;2022-09-19T08:00:21;9.68;;;5.07;;
70866;SDS011;58487;53.474;49.470;2022-09-19T08:03:30;8.63;;;4.93;;
70866;SDS011;58487;53.474;49.470;2022-09-19T08:05:42;8.82;;;4.80;;
70866;SDS011;58487;53.474;49.470;2022-09-19T08:08:10;8.98;;;4.80;;
70866;SDS011;58487;53.474;49.470;2022-09-19T08:10:38;9.47;;;4.50;;
70866;SDS011;58487;53.474;49.470;2022-09-19T08:13:05;10.88;;;4.47;;
70866;SDS011;58487;53.474;49.470;2022-09-19T08:15:33;8.05;;;4.00;;
70866;SDS011;58487;53.474;49.470;2022-09-19T08:18:01;16.95;;;8.52;;
70866;SDS011;58487;53.474;49.470;2022-09-19T08:20:49;9.82;;;4.30;;
70866;SDS011;58487;53.474;49.470;2022-09-19T08:23:16;10.93;;;4.27;;
70866;SDS011;58487;53.474;49.470;2022-09-19T08:25:45;8.75;;;4.32;;
70866;SDS011;58487;53.474;49.470;2022-09-19T08:28:13;9.13;;;3.92;;
70866;SDS011;58487;53.474;49.470;2022-09-19T08:30:40;9.70;;;4.03;;
70866;SDS011;58487;53.474;49.470;2022-09-19T08:33:09;9.57;;;4.15;;
70866;SDS011;58487;53.474;49.470;2022-09-19T08:35:36;11.70;;;6.17;;
70866;SDS011;58487;53.474;49.470;2022-09-19T08:38:05;9.32;;;5.18;;
70866;SDS011;58487;53.474;49.470;2022-09-19T08:43:13;9.20;;;4.10;;
70866;SDS011;58487;53.474;49.470;2022-09-19T08:46:26;11.50;;;4.15;;
70866;SDS011;58487;53.474;49.470;2022-09-19T08:49:16;10.40;;;4.00;;
70866;SDS011;58487;53.474;49.470;2022-09-19T08:52:02;9.40;;;3.60;;
70866;SDS011;58487;53.474;49.470;2022-09-19T08:57:24;7.55;;;3.55;;
70866;SDS011;58487;53.474;49.470;2022-09-19T08:59:56;8.60;;;3.70;;
70866;SDS011;58487;53.474;49.470;2022-09-19T09:05:17;8.95;;;4.20;;
70866;SDS011;58487;53.474;49.470;2022-09-19T09:07:57;10.38;;;4.03;;
70866;SDS011;58487;53.474;49.470;2022-09-19T09:10:43;10.07;;;3.70;;
70866;SDS011;58487;53.474;49.470;2022-09-19T09:18:31;10.45;;;3.92;;
70866;SDS011;58487;53.474;49.470;2022-09-19T09:21:23;11.43;;;4.65;;
70866;SDS011;58487;53.474;49.470;2022-09-19T09:24:09;8.63;;;3.97;;
70866;SDS011;58487;53.474;49.470;2022-09-19T09:26:42;7.85;;;3.47;;
70866;SDS011;58487;53.474;49.470;2022-09-19T09:29:26;10.60;;;4.07;;
70866;SDS011;58487;53.474;49.470;2022-09-19T09:32:03;9.77;;;3.97;;
70866;SDS011;58487;53.474;49.470;2022-09-19T09:34:35;7.70;;;3.72;;
70866;SDS011;58487;53.474;49.470;2022-09-19T09:37:13;10.10;;;3.72;;
70866;SDS011;58487;53.474;49.470;2022-09-19T09:39:47;10.98;;;3.90;;
70866;SDS011;58487;53.474;49.470;2022-09-19T09:42:34;6.80;;;3.77;;
70866;SDS011;58487;53.474;49.470;2022-09-19T09:45:28;9.13;;;4.20;;
70866;SDS011;58487;53.474;49.470;2022-09-19T09:57:20;7.80;;;3.50;;
70866;SDS011;58487;53.474;49.470;2022-09-19T10:00:13;8.00;;;3.17;;
70866;SDS011;58487;53.474;49.470;2022-09-19T10:06:05;7.65;;;3.38;;
70866;SDS011;58487;53.474;49.470;2022-09-19T10:11:33;10.53;;;3.83;;
70866;SDS011;58487;53.474;49.470;2022-09-19T10:14:01;8.48;;;3.60;;
70866;SDS011;58487;53.474;49.470;2022-09-19T10:16:31;6.72;;;3.38;;
70866;SDS011;58487;53.474;49.470;2022-09-19T10:19:02;14.35;;;3.67;;
70866;SDS011;58487;53.474;49.470;2022-09-19T10:21:44;9.25;;;3.80;;
70866;SDS011;58487;53.474;49.470;2022-09-19T10:27:35;9.05;;;3.60;;
70866;SDS011;58487;53.474;49.470;2022-09-19T10:30:14;10.18;;;3.72;;
70866;SDS011;58487;53.474;49.470;2022-09-19T10:32:48;12.43;;;3.70;;
70866;SDS011;58487;53.474;49.470;2022-09-19T10:35:19;15.05;;;4.22;;
70866;SDS011;58487;53.474;49.470;2022-09-19T10:43:31;13.02;;;3.80;;
70866;SDS011;58487;53.474;49.470;2022-09-19T10:46:22;9.10;;;3.90;;
70866;SDS011;58487;53.474;49.470;2022-09-19T10:49:02;8.48;;;3.90;;
70866;SDS011;58487;53.474;49.470;2022-09-19T10:54:10;9.70;;;3.92;;
70866;SDS011;58487;53.474;49.470;2022-09-19T10:56:45;11.55;;;4.32;;
70866;SDS011;58487;53.474;49.470;2022-09-19T11:04:51;12.53;;;4.20;;
70866;SDS011;58487;53.474;49.470;2022-09-19T11:07:25;9.10;;;4.03;;
70866;SDS011;58487;53.474;49.470;2022-09-19T11:09:55;7.15;;;3.40;;
70866;SDS011;58487;53.474;49.470;2022-09-19T11:12:28;6.75;;;3.50;;
70866;SDS011;58487;53.474;49.470;2022-09-19T11:14:58;12.98;;;4.05;;
70866;SDS011;58487;53.474;49.470;2022-09-19T11:22:46;9.48;;;3.60;;
70866;SDS011;58487;53.474;49.470;2022-09-19T11:25:20;9.00;;;3.50;;
70866;SDS011;58487;53.474;49.470;2022-09-19T11:28:05;9.57;;;4.00;;
70866;SDS011;58487;53.474;49.470;2022-09-19T11:33:54;14.37;;;4.00;;
70866;SDS011;58487;53.474;49.470;2022-09-19T11:36:35;9.07;;;3.33;;
70866;SDS011;58487;53.474;49.470;2022-09-19T11:39:15;14.38;;;3.75;;
70866;SDS011;58487;53.474;49.470;2022-09-19T11:42:12;11.75;;;4.00;;
70866;SDS011;58487;53.474;49.470;2022-09-19T11:55:35;8.60;;;3.75;;
70866;SDS011;58487;53.474;49.470;2022-09-19T11:58:26;11.07;;;5.93;;
70866;SDS011;58487;53.474;49.470;2022-09-19T12:03:39;7.85;;;3.80;;
70866;SDS011;58487;53.474;49.470;2022-09-19T12:06:21;11.52;;;3.85;;
70866;SDS011;58487;53.474;49.470;2022-09-19T12:09:21;8.27;;;3.60;;
70866;SDS011;58487;53.474;49.470;2022-09-19T12:11:54;8.07;;;3.80;;
70866;SDS011;58487;53.474;49.470;2022-09-19T12:14:28;9.50;;;3.97;;
70866;SDS011;58487;53.474;49.470;2022-09-19T12:17:02;8.48;;;3.63;;
70866;SDS011;58487;53.474;49.470;2022-09-19T12:19:34;7.75;;;3.70;;
70866;SDS011;58487;53.474;49.470;2022-09-19T12:22:23;9.10;;;3.53;;
70866;SDS011;58487;53.474;49.470;2022-09-19T12:24:55;7.45;;;3.78;;
70866;SDS011;58487;53.474;49.470;2022-09-19T12:30:29;6.10;;;3.55;;
70866;SDS011;58487;53.474;49.470;2022-09-19T12:40:00;6.57;;;3.13;;
70866;SDS011;58487;53.474;49.470;2022-09-19T12:45:21;7.75;;;2.83;;
70866;SDS011;58487;53.474;49.470;2022-09-19T12:48:38;7.28;;;2.30;;
70866;SDS011;58487;53.474;49.470;2022-09-19T12:50:52;9.48;;;2.28;;
70866;SDS011;58487;53.474;49.470;2022-09-19T12:53:24;7.32;;;2.63;;
70866;SDS011;58487;53.474;49.470;2022-09-19T12:56:04;6.77;;;2.83;;
70866;SDS011;58487;53.474;49.470;2022-09-19T13:01:28;10.75;;;4.25;;
70866;SDS011;58487;53.474;49.470;2022-09-19T13:06:47;9.40;;;4.10;;
70866;SDS011;58487;53.474;49.470;2022-09-19T13:09:25;9.00;;;5.03;;
70866;SDS011;58487;53.474;49.470;2022-09-19T13:12:00;9.88;;;3.88;;
70866;SDS011;58487;53.474;49.470;2022-09-19T13:14:53;10.82;;;3.80;;
70866;SDS011;58487;53.474;49.470;2022-09-19T13:17:23;8.82;;;3.35;;
70866;SDS011;58487;53.474;49.470;2022-09-19T13:20:18;9.13;;;3.50;;
70866;SDS011;58487;53.474;49.470;2022-09-19T13:23:08;7.37;;;3.60;;
70866;SDS011;58487;53.474;49.470;2022-09-19T13:26:13;8.63;;;3.70;;
70866;SDS011;58487;53.474;49.470;2022-09-19T13:28:51;10.57;;;3.85;;
70866;SDS011;58487;53.474;49.470;2022-09-19T13:31:19;7.10;;;4.00;;
70866;SDS011;58487;53.474;49.470;2022-09-19T13:36:36;6.60;;;3.70;;
70866;SDS011;58487;53.474;49.470;2022-09-19T13:39:10;9.13;;;4.30;;
70866;SDS011;58487;53.474;49.470;2022-09-19T13:42:39;8.30;;;3.85;;
70866;SDS011;58487;53.474;49.470;2022-09-19T13:47:54;8.80;;;3.95;;
70866;SDS011;58487;53.474;49.470;2022-09-19T13:50:43;8.30;;;3.87;;
70866;SDS011;58487;53.474;49.470;2022-09-19T13:53:27;7.55;;;4.28;;
70866;SDS011;58487;53.474;49.470;2022-09-19T13:56:03;10.38;;;5.82;;
70866;SDS011;58487;53.474;49.470;2022-09-19T13:59:08;8.25;;;4.05;;
70866;SDS011;58487;53.474;49.470;2022-09-19T14:01:55;11.43;;;5.80;;
70866;SDS011;58487;53.474;49.470;2022-09-19T14:04:28;6.67;;;3.70;;
70866;SDS011;58487;53.474;49.470;2022-09-19T14:07:30;8.25;;;3.55;;
70866;SDS011;58487;53.474;49.470;2022-09-19T14:12:54;11.73;;;3.67;;
70866;SDS011;58487;53.474;49.470;2022-09-19T14:21:09;6.38;;;3.58;;
70866;SDS011;58487;53.474;49.470;2022-09-19T14:24:09;7.72;;;3.22;;
70866;SDS011;58487;53.474;49.470;2022-09-19T14:27:16;7.47;;;3.58;;
70866;SDS011;58487;53.474;49.470;2022-09-19T14:30:02;6.05;;;3.05;;
70866;SDS011;58487;53.474;49.470;2022-09-19T14:35:46;12.40;;;3.63;;
70866;SDS011;58487;53.474;49.470;2022-09-19T14:38:48;9.00;;;3.72;;
70866;SDS011;58487;53.474;49.470;2022-09-19T14:41:36;8.43;;;3.58;;
70866;SDS011;58487;53.474;49.470;2022-09-19T14:47:16;11.07;;;4.27;;
70866;SDS011;58487;53.474;49.470;2022-09-19T14:49:54;7.90;;;4.18;;
70866;SDS011;58487;53.474;49.470;2022-09-19T14:52:26;9.85;;;4.68;;
70866;SDS011;58487;53.474;49.470;2022-09-19T14:54:59;9.30;;;4.15;;
70866;SDS011;58487;53.474;49.470;2022-09-19T14:57:29;19.13;;;5.45;;
70866;SDS011;58487;53.474;49.470;2022-09-19T15:02:48;12.07;;;5.78;;
70866;SDS011;58487;53.474;49.470;2022-09-19T15:05:17;11.70;;;6.13;;
70866;SDS011;58487;53.474;49.470;2022-09-19T15:07:48;15.93;;;6.97;;
70866;SDS011;58487;53.474;49.470;2022-09-19T15:12:56;11.70;;;5.47;;
70866;SDS011;58487;53.474;49.470;2022-09-19T15:15:34;15.65;;;6.20;;
70866;SDS011;58487;53.474;49.470;2022-09-19T15:18:01;11.48;;;5.38;;
70866;SDS011;58487;53.474;49.470;2022-09-19T15:20:28;11.48;;;5.72;;
70866;SDS011;58487;53.474;49.470;2022-09-19T15:22:55;16.35;;;7.18;;
70866;SDS011;58487;53.474;49.470;2022-09-19T15:25:30;14.80;;;8.40;;
70866;SDS011;58487;53.474;49.470;2022-09-19T15:28:26;18.10;;;9.30;;
70866;SDS011;58487;53.474;49.470;2022-09-19T15:31:00;15.05;;;9.13;;
70866;SDS011;58487;53.474;49.470;2022-09-19T15:33:27;13.23;;;8.20;;
70866;SDS011;58487;53.474;49.470;2022-09-19T15:35:54;14.98;;;8.40;;
70866;SDS011;58487;53.474;49.470;2022-09-19T15:38:28;16.70;;;8.60;;
70866;SDS011;58487;53.474;49.470;2022-09-19T15:40:59;14.75;;;8.25;;
70866;SDS011;58487;53.474;49.470;2022-09-19T15:43:29;12.82;;;8.10;;
70866;SDS011;58487;53.474;49.470;2022-09-19T15:46:00;19.40;;;9.05;;
70866;SDS011;58487;53.474;49.470;2022-09-19T15:48:29;15.13;;;7.43;;
70866;SDS011;58487;53.474;49.470;2022-09-19T15:51:00;16.20;;;8.17;;
70866;SDS011;58487;53.474;49.470;2022-09-19T15:53:35;12.60;;;6.32;;
70866;SDS011;58487;53.474;49.470;2022-09-19T15:58:51;11.57;;;6.93;;
70866;SDS011;58487;53.474;49.470;2022-09-19T16:01:28;13.77;;;6.65;;
70866;SDS011;58487;53.474;49.470;2022-09-19T16:06:32;10.57;;;5.82;;
70866;SDS011;58487;53.474;49.470;2022-09-19T16:09:30;10.35;;;5.32;;
70866;SDS011;58487;53.474;49.470;2022-09-19T16:20:39;8.07;;;5.50;;
70866;SDS011;58487;53.474;49.470;2022-09-19T16:23:16;12.07;;;5.95;;
70866;SDS011;58487;53.474;49.470;2022-09-19T16:25:56;9.35;;;5.20;;
70866;SDS011;58487;53.474;49.470;2022-09-19T16:33:34;7.22;;;3.20;;
70866;SDS011;58487;53.474;49.470;2022-09-19T16:36:04;8.07;;;3.72;;
70866;SDS011;58487;53.474;49.470;2022-09-19T16:41:41;5.30;;;2.97;;
70866;SDS011;58487;53.474;49.470;2022-09-19T16:47:20;9.60;;;3.13;;
70866;SDS011;58487;53.474;49.470;2022-09-19T16:49:41;7.03;;;3.35;;
70866;SDS011;58487;53.474;49.470;2022-09-19T16:52:11;5.00;;;2.70;;
70866;SDS011;58487;53.474;49.470;2022-09-19T16:54:48;5.85;;;2.88;;
70866;SDS011;58487;53.474;49.470;2022-09-19T16:57:15;6.50;;;3.73;;
70866;SDS011;58487;53.474;49.470;2022-09-19T16:59:44;7.57;;;4.10;;
70866;SDS011;58487;53.474;49.470;2022-09-19T17:02:15;7.40;;;3.53;;
70866;SDS011;58487;53.474;49.470;2022-09-19T17:04:53;8.32;;;4.10;;
70866;SDS011;58487;53.474;49.470;2022-09-19T17:07:20;6.00;;;2.97;;
70866;SDS011;58487;53.474;49.470;2022-09-19T17:09:49;5.80;;;3.40;;
70866;SDS011;58487;53.474;49.470;2022-09-19T17:12:22;5.70;;;2.97;;
70866;SDS011;58487;53.474;49.470;2022-09-19T17:14:52;7.95;;;3.72;;
70866;SDS011;58487;53.474;49.470;2022-09-19T17:17:18;5.82;;;2.30;;
70866;SDS011;58487;53.474;49.470;2022-09-19T17:19:45;6.18;;;2.80;;
70866;SDS011;58487;53.474;49.470;2022-09-19T17:22:15;4.67;;;2.10;;
70866;SDS011;58487;53.474;49.470;2022-09-19T17:24:42;7.30;;;2.72;;
70866;SDS011;58487;53.474;49.470;2022-09-19T17:27:10;5.28;;;2.40;;
70866;SDS011;58487;53.474;49.470;2022-09-19T17:29:36;6.07;;;2.28;;
70866;SDS011;58487;53.474;49.470;2022-09-19T17:32:03;6.38;;;2.70;;
70866;SDS011;58487;53.474;49.470;2022-09-19T17:34:32;7.67;;;3.53;;
70866;SDS011;58487;53.474;49.470;2022-09-19T17:36:58;5.43;;;2.97;;
70866;SDS011;58487;53.474;49.470;2022-09-19T17:39:27;5.40;;;2.63;;
70866;SDS011;58487;53.474;49.470;2022-09-19T17:41:54;6.47;;;2.97;;
70866;SDS011;58487;53.474;49.470;2022-09-19T17:44:21;6.03;;;2.60;;
70866;SDS011;58487;53.474;49.470;2022-09-19T17:46:47;6.00;;;3.20;;
70866;SDS011;58487;53.474;49.470;2022-09-19T17:49:14;7.47;;;3.45;;
70866;SDS011;58487;53.474;49.470;2022-09-19T17:51:40;7.68;;;3.25;;
70866;SDS011;58487;53.474;49.470;2022-09-19T17:54:06;4.97;;;2.47;;
70866;SDS011;58487;53.474;49.470;2022-09-19T17:56:32;5.93;;;2.70;;
70866;SDS011;58487;53.474;49.470;2022-09-19T17:58:59;6.10;;;2.87;;
70866;SDS011;58487;53.474;49.470;2022-09-19T18:01:27;5.38;;;2.50;;
70866;SDS011;58487;53.474;49.470;2022-09-19T18:04:16;5.65;;;2.60;;